createdAt,value
2023-03-31T00:03:25.398Z,100943.16
2023-03-31T00:08:36.707Z,100972.03
2023-03-31T00:13:42.387Z,100949.28
2023-03-31T00:18:52.215Z,100952.41
2023-03-31T00:24:00.412Z,100973.81
2023-03-31T00:29:07.820Z,100954.81
2023-03-31T00:34:13.142Z,100962.59
2023-03-31T00:39:21.060Z,100950.00
2023-03-31T00:44:27.435Z,100961.59
2023-03-31T00:49:41.921Z,100965.16
2023-03-31T00:54:51.747Z,101029.94
2023-03-31T01:00:08.545Z,100955.97
2023-03-31T01:05:14.142Z,100967.97
2023-03-31T01:10:20.036Z,100961.31
2023-03-31T01:15:26.363Z,100974.13
2023-03-31T01:20:58.448Z,100976.25
2023-03-31T01:26:13.190Z,100969.16
2023-03-31T01:32:13.398Z,100970.09
2023-03-31T01:37:50.771Z,100964.63
2023-03-31T01:43:10.046Z,100962.63
2023-03-31T01:48:19.517Z,100964.88
2023-03-31T01:53:43.588Z,100967.56
2023-03-31T01:59:16.727Z,100966.16
2023-03-31T02:04:35.368Z,100972.84
2023-03-31T02:09:49.660Z,100961.06
2023-03-31T02:14:59.366Z,100957.47
2023-03-31T02:20:13.498Z,100962.97
2023-03-31T02:25:23.181Z,100965.53
2023-03-31T02:30:48.143Z,100957.75
2023-03-31T02:35:53.893Z,100971.63
2023-03-31T02:40:59.855Z,100959.28
2023-03-31T02:46:05.889Z,100952.31
2023-03-31T02:51:11.365Z,100930.84
2023-03-31T02:56:38.509Z,100927.31
2023-03-31T03:02:08.450Z,100949.16
2023-03-31T03:07:27.956Z,100942.34
2023-03-31T03:12:51.065Z,100907.31
2023-03-31T03:17:58.271Z,100912.19
2023-03-31T03:23:03.967Z,100890.97
2023-03-31T03:28:09.902Z,100914.38
2023-03-31T03:33:18.474Z,100875.94
2023-03-31T03:38:23.718Z,100867.75
2023-03-31T03:43:28.982Z,100859.59
2023-03-31T03:48:34.258Z,100835.34
2023-03-31T03:53:39.455Z,100845.72
2023-03-31T03:58:44.740Z,100821.81
2023-03-31T04:03:50.543Z,100815.84
2023-03-31T04:08:55.974Z,100807.19
2023-03-31T04:14:01.199Z,100809.66
2023-03-31T04:19:09.654Z,100793.41
2023-03-31T04:24:24.135Z,100774.00
2023-03-31T04:29:29.594Z,100765.75
2023-03-31T04:34:39.112Z,100774.13
2023-03-31T04:39:47.810Z,100749.94
2023-03-31T04:44:53.302Z,100736.28
2023-03-31T04:50:00.184Z,100737.84
2023-03-31T04:55:06.855Z,100750.06
2023-03-31T05:00:14.226Z,100739.75
2023-03-31T05:05:20.697Z,100697.00
2023-03-31T05:10:26.629Z,100691.03
2023-03-31T05:15:34.573Z,100678.31
2023-03-31T05:20:42.203Z,100686.09
2023-03-31T05:25:51.324Z,100674.56
2023-03-31T05:30:56.990Z,100666.56
2023-03-31T05:36:04.557Z,100685.41
2023-03-31T05:41:14.604Z,100654.38
2023-03-31T05:46:21.029Z,100666.13
2023-03-31T05:51:27.867Z,100653.53
2023-03-31T05:56:35.242Z,100635.28
2023-03-31T06:01:43.134Z,100622.53
2023-03-31T06:06:51.594Z,100648.06
2023-03-31T06:11:58.657Z,100614.16
2023-03-31T06:17:03.912Z,100630.59
2023-03-31T06:22:10.986Z,100607.22
2023-03-31T06:27:17.361Z,100598.66
2023-03-31T06:32:22.905Z,100614.38
2023-03-31T06:37:28.708Z,100628.47
2023-03-31T06:42:36.679Z,100603.56
2023-03-31T06:47:42.952Z,100590.53
2023-03-31T06:52:48.567Z,100587.72
2023-03-31T06:57:55.330Z,100582.84
2023-03-31T07:03:04.024Z,100573.06
2023-03-31T07:08:09.874Z,100574.88
2023-03-31T07:13:15.961Z,100565.69
2023-03-31T07:18:23.201Z,100557.19
2023-03-31T07:23:31.699Z,100550.00
2023-03-31T07:28:38.996Z,100542.13
2023-03-31T07:33:44.449Z,100520.94
2023-03-31T07:38:51.510Z,100510.00
2023-03-31T07:43:59.320Z,100514.53
2023-03-31T07:49:05.526Z,100505.22
2023-03-31T07:54:11.153Z,100519.72
2023-03-31T07:59:19.244Z,100497.97
2023-03-31T08:04:24.133Z,100489.00
2023-03-31T08:09:31.566Z,100486.91
2023-03-31T08:14:41.608Z,100478.31
2023-03-31T08:19:47.102Z,100501.31
2023-03-31T08:24:53.256Z,100473.91
2023-03-31T08:29:58.494Z,100475.78
2023-03-31T08:35:04.243Z,100455.50
2023-03-31T08:40:14.526Z,100467.03
2023-03-31T08:45:23.881Z,100467.84
2023-03-31T08:50:41.366Z,100459.34
2023-03-31T08:55:52.560Z,100461.38
2023-03-31T09:01:24.726Z,100459.28
2023-03-31T09:06:46.122Z,100450.03
2023-03-31T09:11:58.444Z,100453.28
2023-03-31T09:17:22.684Z,100450.19
2023-03-31T09:22:41.950Z,100441.41
2023-03-31T09:27:48.952Z,100439.13
2023-03-31T09:33:21.367Z,100445.84
2023-03-31T09:38:30.893Z,100451.22
2023-03-31T09:43:42.290Z,100457.44
2023-03-31T09:49:08.039Z,100463.22
2023-03-31T09:54:18.242Z,100458.09
2023-03-31T09:59:37.759Z,100466.59
2023-03-31T10:04:48.111Z,100469.94
2023-03-31T10:09:55.974Z,100473.53
2023-03-31T10:15:27.963Z,100468.75
2023-03-31T10:20:39.886Z,100504.44
2023-03-31T10:25:48.477Z,100477.50
2023-03-31T10:31:02.599Z,100481.34
2023-03-31T10:36:28.377Z,100478.78
2023-03-31T10:41:34.715Z,100495.19
2023-03-31T10:46:45.275Z,100479.84
2023-03-31T10:52:00.203Z,100478.06
2023-03-31T10:57:07.484Z,100488.03
2023-03-31T11:02:31.108Z,100494.47
2023-03-31T11:08:23.987Z,100497.25
2023-03-31T11:13:54.983Z,100501.09
2023-03-31T11:19:13.725Z,100510.47
2023-03-31T11:24:45.046Z,100515.88
2023-03-31T11:30:30.626Z,100532.25
2023-03-31T11:36:05.715Z,100541.34
2023-03-31T11:41:33.240Z,100583.28
2023-03-31T11:46:57.690Z,100548.94
2023-03-31T11:52:08.533Z,100556.34
2023-03-31T11:57:32.891Z,100555.97
2023-03-31T12:02:51.327Z,100561.16
2023-03-31T12:08:14.168Z,100583.81
2023-03-31T12:13:19.380Z,100576.63
2023-03-31T12:18:28.301Z,100591.72
2023-03-31T12:23:40.440Z,100629.81
2023-03-31T12:28:48.310Z,100631.47
2023-03-31T12:33:58.414Z,100597.91
2023-03-31T12:39:30.720Z,100611.31
2023-03-31T12:44:46.229Z,100612.97
2023-03-31T12:50:12.854Z,100603.09
2023-03-31T12:55:40.324Z,100607.44
2023-03-31T13:01:12.752Z,100612.78
2023-03-31T13:06:31.125Z,100609.28
2023-03-31T13:11:39.969Z,100622.84
2023-03-31T13:16:47.543Z,100615.25
2023-03-31T13:21:57.691Z,100617.09
2023-03-31T13:27:35.724Z,100622.25
2023-03-31T13:32:43.248Z,100625.09
2023-03-31T13:38:44.988Z,100614.38
2023-03-31T13:43:57.347Z,100615.22
2023-03-31T13:49:23.744Z,100612.34
2023-03-31T13:54:47.221Z,100610.66
2023-03-31T14:00:13.726Z,100614.16
2023-03-31T14:05:41.027Z,100612.06
2023-03-31T14:10:46.737Z,100609.19
2023-03-31T14:16:00.944Z,100613.69
2023-03-31T14:21:30.306Z,100609.34
2023-03-31T14:27:05.711Z,100602.94
2023-03-31T14:32:33.545Z,100636.16
2023-03-31T14:37:39.187Z,100607.59
2023-03-31T14:42:51.132Z,100604.91
2023-03-31T14:48:05.257Z,100609.59
2023-03-31T14:53:17.791Z,100617.13
2023-03-31T14:58:36.102Z,100611.97
2023-03-31T15:03:46.110Z,100619.09
2023-03-31T15:09:05.916Z,100614.94
2023-03-31T15:14:14.922Z,100612.63
2023-03-31T15:19:26.125Z,100625.09
2023-03-31T15:24:34.779Z,100631.19
2023-03-31T15:29:47.477Z,100605.09
2023-03-31T15:34:54.701Z,100595.03
2023-03-31T15:40:03.225Z,100590.84
2023-03-31T15:45:18.079Z,100592.06
2023-03-31T15:50:27.654Z,100596.34
2023-03-31T15:55:46.245Z,100594.69
2023-03-31T16:01:03.485Z,100589.47
2023-03-31T16:06:41.278Z,100604.59
2023-03-31T16:11:55.818Z,100593.06
2023-03-31T16:17:16.251Z,100632.97
2023-03-31T16:22:26.693Z,100593.59
2023-03-31T16:27:32.735Z,100600.69
2023-03-31T16:33:02.615Z,100606.16
2023-03-31T16:38:10.465Z,100594.34
2023-03-31T16:43:16.999Z,100603.09
2023-03-31T16:48:25.487Z,100600.34
2023-03-31T16:53:39.085Z,100587.69
2023-03-31T16:58:45.281Z,100594.50
2023-03-31T17:03:51.143Z,100583.34
2023-03-31T17:08:56.958Z,100606.00
2023-03-31T17:14:02.464Z,100569.66
2023-03-31T17:19:09.046Z,100557.94
2023-03-31T17:24:13.624Z,100553.59
2023-03-31T17:29:19.064Z,100550.69
2023-03-31T17:34:24.387Z,100569.88
2023-03-31T17:39:29.724Z,100541.16
2023-03-31T17:44:37.865Z,100535.38
2023-03-31T17:49:43.259Z,100574.47
2023-03-31T17:54:50.295Z,100524.56
2023-03-31T17:59:56.184Z,100515.94
2023-03-31T18:05:01.935Z,100549.03
2023-03-31T18:10:08.067Z,100512.81
2023-03-31T18:15:12.993Z,100510.34
2023-03-31T18:20:18.555Z,100513.38
2023-03-31T18:25:24.054Z,100496.69
2023-03-31T18:30:29.480Z,100495.59
2023-03-31T18:35:35.093Z,100490.19
2023-03-31T18:40:40.869Z,100494.41
2023-03-31T18:45:51.554Z,100503.28
2023-03-31T18:50:56.761Z,100503.19
2023-03-31T18:56:02.576Z,100502.91
2023-03-31T19:01:09.613Z,100489.34
2023-03-31T19:06:17.588Z,100520.66
2023-03-31T19:11:23.245Z,100521.34
2023-03-31T19:16:29.777Z,100495.22
2023-03-31T19:21:38.149Z,100488.97
2023-03-31T19:26:44.461Z,100504.34
2023-03-31T19:31:49.947Z,100474.19
2023-03-31T19:36:55.491Z,100479.94
2023-03-31T19:42:01.062Z,100473.03
2023-03-31T19:47:06.887Z,100510.28
2023-03-31T19:52:12.259Z,100472.63
2023-03-31T19:57:18.717Z,100535.56
2023-03-31T20:02:24.926Z,100468.91
2023-03-31T20:07:31.386Z,100472.91
2023-03-31T20:12:37.901Z,100473.28
2023-03-31T20:17:43.096Z,100484.88
2023-03-31T20:22:48.557Z,100464.00
2023-03-31T20:27:53.887Z,100472.81
2023-03-31T20:32:59.193Z,100457.56
2023-03-31T20:38:04.467Z,100457.75
2023-03-31T20:43:09.684Z,100459.91
2023-03-31T20:48:14.838Z,100470.22
2023-03-31T20:53:20.235Z,100482.38
2023-03-31T20:58:25.465Z,100490.16
2023-03-31T21:03:30.792Z,100463.47
2023-03-31T21:08:37.068Z,100457.88
2023-03-31T21:13:42.415Z,100459.72
2023-03-31T21:18:47.559Z,100502.66
2023-03-31T21:23:53.633Z,100475.00
2023-03-31T21:28:59.841Z,100476.19
2023-03-31T21:34:05.834Z,100475.88
2023-03-31T21:39:11.306Z,100490.81
2023-03-31T21:44:17.642Z,100482.53
2023-03-31T21:49:23.186Z,100494.66
2023-03-31T21:54:28.484Z,100501.47
2023-03-31T21:59:33.846Z,100503.63
2023-03-31T22:04:39.316Z,100500.81
2023-03-31T22:09:44.888Z,100507.78
2023-03-31T22:14:50.212Z,100516.06
2023-03-31T22:19:56.381Z,100540.41
2023-03-31T22:25:01.931Z,100519.03
2023-03-31T22:30:08.216Z,100523.66
2023-03-31T22:35:13.451Z,100534.28
2023-03-31T22:40:19.207Z,100535.41
2023-03-31T22:45:24.410Z,100537.56
2023-03-31T22:50:29.517Z,100545.00
2023-03-31T22:55:35.622Z,100559.41
2023-03-31T23:00:41.161Z,100574.13
2023-03-31T23:05:47.113Z,100595.66
2023-03-31T23:11:00.644Z,100581.03
2023-03-31T23:16:12.164Z,100592.78
2023-03-31T23:21:20.758Z,100600.38
2023-03-31T23:26:29.436Z,100610.47
2023-03-31T23:31:36.395Z,100616.69
2023-03-31T23:36:42.103Z,100622.28
2023-03-31T23:41:47.775Z,100627.50
2023-03-31T23:46:53.063Z,100633.56
2023-03-31T23:51:58.975Z,100629.50
2023-03-31T23:57:04.282Z,100660.59
